Main page
METAR-TAF:

METAR-TAF

Airports :

Seychelles International Airport

Victoria, Mahé, Seychelles

latitude: 04-40S, longitude: 055-31E, elevation: 3 m

Current weather observation

The report was made 13 minutes ago, at 19:05 UTC
Wind 8 kt from the South/Southeast, varying between East and South
Temperature 26°C
Humidity 89%
Pressure 1012 hPa

METAR: FSIA 181905Z AUTO 15008KT 100V190 //// R13///// // BKN014/// BKN030/// BKN065/// 26/24 Q1012

Time: 23:18 (19:18 UTC)

Forecast

The report was made 2 hours and 17 minutes ago, at 17:01 UTC
Forecast valid from 18 at 18 UTC to 19 at 18 UTC
Wind 12 kt from the South/Southeast
Visibility 10 km or more
Scattered clouds at a height of 2000 ft
Probability 40% :
Temporary
from 19 at 10 UTC to 19 at 18 UTC
Broken clouds at a height of 1800 ft
light rain showers

TAF: FSIA 181701Z 1818/1918 15012KT 9999 SCT020 PROB40 TEMPO 1910/1918 -SHRA BKN018

Weather observations and forecasts of more than 4000 airports (METAR and TAF reports).

The available stations are represented by yellow and red dots on the map.

Hover mouse over dot to see the name of the station.

Then click to see weather observations and forecasts.

To change the map : click on the green buttons with a black cross to zoom in, on the green button with a dash to zoom out, or on the green arrows for adjacent maps.


METAR-TAF: